Time;durP1;ratioP1;P1;durP2;ratioP2;P2;SDS_P1;SDS_P2;PMS_P1;PMS_P2;Temp;Humidity;BMP_temperature;BMP_pressure;BME280_temperature;BME280_humidity;BME280_pressure;Samples;Min_cycle;Max_cycle;Signal;HPM_P1;HPM_P2
2021/12/24 05:02:18;;;;;;;4.77;3.43;;;9.60;99.90;;;;;;5239918;23;20559;-71
2021/12/24 05:04:50;;;;;;;3.70;3.27;;;9.50;99.90;;;;;;4975384;28;20444;-70
2021/12/24 05:07:41;;;;;;;6.63;3.37;;;9.50;99.90;;;;;;4975037;28;20463;-70
2021/12/24 05:10:08;;;;;;;3.53;3.27;;;9.50;99.90;;;;;;4975230;28;20456;-71
2021/12/24 05:12:35;;;;;;;6.20;3.60;;;9.50;99.90;;;;;;4961575;28;20476;-71
2021/12/24 05:15:02;;;;;;;3.80;3.50;;;9.50;99.90;;;;;;4963788;28;20455;-71
2021/12/24 05:17:44;;;;;;;3.90;3.60;;;9.50;99.90;;;;;;4962154;28;20456;-70
2021/12/24 05:22:55;;;;;;;4.33;3.63;;;9.50;99.90;;;;;;4956331;28;20539;-70
2021/12/24 05:25:22;;;;;;;3.33;3.13;;;9.50;99.90;;;;;;4959126;28;20939;-70
2021/12/24 05:27:51;;;;;;;4.57;3.60;;;9.50;99.90;;;;;;4959300;28;20870;-70
2021/12/24 05:30:19;;;;;;;3.73;3.37;;;9.50;99.90;;;;;;4959070;28;20549;-71
2021/12/24 05:32:47;;;;;;;4.80;3.90;;;9.50;99.90;;;;;;4959247;28;20467;-71
2021/12/24 05:35:13;;;;;;;3.80;3.47;;;9.50;99.90;;;;;;4959369;28;20452;-71
2021/12/24 05:37:40;;;;;;;3.60;3.30;;;9.50;99.90;;;;;;4959121;28;20458;-71
2021/12/24 05:40:09;;;;;;;4.03;3.63;;;9.40;99.90;;;;;;4959312;28;20464;-71
2021/12/24 05:42:35;;;;;;;3.60;3.40;;;9.40;99.90;;;;;;4959267;28;20452;-71
2021/12/24 05:45:05;;;;;;;4.67;3.10;;;9.40;99.90;;;;;;4958938;28;20463;-71
2021/12/24 05:47:32;;;;;;;3.33;3.03;;;9.40;99.90;;;;;;4958650;28;20462;-71
2021/12/24 05:50:00;;;;;;;4.20;3.33;;;9.40;99.90;;;;;;4959010;28;20456;-71
2021/12/24 05:52:28;;;;;;;3.90;3.60;;;9.50;99.90;;;;;;4958818;28;20476;-71
2021/12/24 05:54:55;;;;;;;4.93;3.37;;;9.50;99.90;;;;;;4958849;28;20468;-71
2021/12/24 05:57:23;;;;;;;4.33;4.03;;;9.50;99.90;;;;;;4958678;28;20456;-70
2021/12/24 05:59:50;;;;;;;3.90;3.60;;;9.60;99.90;;;;;;4958701;28;20462;-72
2021/12/24 06:02:17;;;;;;;5.20;3.37;;;9.60;99.90;;;;;;4958132;28;20490;-71
2021/12/24 06:04:44;;;;;;;5.00;4.50;;;9.50;99.90;;;;;;4958509;28;20466;-71
2021/12/24 06:07:12;;;;;;;4.73;3.97;;;9.50;99.90;;;;;;4958625;28;20457;-71
2021/12/24 06:09:38;;;;;;;3.87;3.57;;;9.40;99.90;;;;;;4958426;28;20470;-70
2021/12/24 06:12:06;;;;;;;4.57;3.80;;;9.40;99.90;;;;;;4957930;28;20560;-71
2021/12/24 06:14:33;;;;;;;4.20;3.90;;;9.40;99.90;;;;;;4958434;28;20463;-71
2021/12/24 06:17:01;;;;;;;5.87;4.07;;;9.40;99.90;;;;;;4958277;28;20460;-71
2021/12/24 06:19:28;;;;;;;4.77;3.50;;;9.30;99.90;;;;;;4958195;28;20525;-72
2021/12/24 06:21:54;;;;;;;5.70;4.10;;;9.30;99.90;;;;;;4958252;28;20845;-71
2021/12/24 06:24:23;;;;;;;6.80;4.50;;;9.30;99.90;;;;;;4958309;28;20463;-71
2021/12/24 06:26:51;;;;;;;5.00;4.33;;;9.30;99.90;;;;;;4958374;28;20450;-70
2021/12/24 06:29:18;;;;;;;4.30;3.90;;;9.30;99.90;;;;;;4957828;28;21025;-71
2021/12/24 06:31:45;;;;;;;5.20;4.23;;;9.30;99.90;;;;;;4957950;28;20489;-71
2021/12/24 06:34:12;;;;;;;3.90;3.60;;;9.40;99.90;;;;;;4957911;28;20457;-71
2021/12/24 06:36:42;;;;;;;4.43;4.13;;;9.50;99.90;;;;;;4957552;28;20459;-71
2021/12/24 06:39:09;;;;;;;5.10;4.17;;;9.50;99.90;;;;;;4958250;28;20471;-71
2021/12/24 06:41:37;;;;;;;4.17;3.87;;;9.50;99.90;;;;;;4958545;28;20966;-72
2021/12/24 06:44:08;;;;;;;4.70;4.00;;;9.50;99.90;;;;;;4957724;28;20968;-72
2021/12/24 06:46:35;;;;;;;3.97;3.60;;;9.60;99.90;;;;;;4957871;28;20446;-71
2021/12/24 06:49:01;;;;;;;4.60;4.20;;;9.60;99.90;;;;;;4957718;28;20468;-71
2021/12/24 06:51:28;;;;;;;4.90;3.87;;;9.60;99.90;;;;;;4957695;28;20487;-70
2021/12/24 06:53:56;;;;;;;4.03;3.60;;;9.60;99.90;;;;;;4957721;28;20871;-72
2021/12/24 06:56:23;;;;;;;4.70;3.87;;;9.60;99.90;;;;;;4957565;28;20465;-71
2021/12/24 06:58:51;;;;;;;3.70;3.50;;;9.70;99.90;;;;;;4957460;28;20463;-71
2021/12/24 07:01:19;;;;;;;3.53;3.30;;;9.70;99.90;;;;;;4957191;28;20488;-72
2021/12/24 07:03:45;;;;;;;4.10;3.80;;;9.70;99.90;;;;;;4957213;28;20991;-71
2021/12/24 07:06:12;;;;;;;4.13;3.80;;;9.70;99.90;;;;;;4957316;28;20462;-71
2021/12/24 07:08:39;;;;;;;4.10;3.80;;;9.80;99.90;;;;;;4956912;28;20946;-71
2021/12/24 07:11:06;;;;;;;4.00;3.70;;;9.80;99.90;;;;;;4957501;28;20493;-71
2021/12/24 07:13:33;;;;;;;5.53;3.93;;;10.00;99.90;;;;;;4957156;28;20489;-71
2021/12/24 07:16:01;;;;;;;3.80;3.50;;;10.10;99.90;;;;;;4958229;28;20806;-71
2021/12/24 07:18:28;;;;;;;3.97;3.67;;;10.10;99.90;;;;;;4957334;28;20457;-73
2021/12/24 07:20:54;;;;;;;5.60;4.10;;;10.10;99.90;;;;;;4956898;28;20478;-74
2021/12/24 07:23:21;;;;;;;4.00;3.53;;;10.10;99.90;;;;;;4957090;28;20456;-73
2021/12/24 07:25:48;;;;;;;4.80;4.50;;;10.00;99.90;;;;;;4957220;28;20460;-72
2021/12/24 07:28:15;;;;;;;4.30;3.93;;;10.00;99.90;;;;;;4957013;28;20453;-72
2021/12/24 07:30:41;;;;;;;5.73;4.50;;;10.00;99.90;;;;;;4956768;28;20484;-71
2021/12/24 07:33:14;;;;;;;4.80;4.40;;;10.00;99.90;;;;;;4956950;28;20477;-72
2021/12/24 07:35:41;;;;;;;4.80;4.40;;;10.10;99.90;;;;;;4956937;28;20452;-71
2021/12/24 07:38:09;;;;;;;5.27;4.70;;;10.00;99.90;;;;;;4956714;28;20460;-71
2021/12/24 07:40:36;;;;;;;5.80;4.70;;;10.00;99.90;;;;;;4956802;28;20479;-71
2021/12/24 07:43:03;;;;;;;4.90;4.50;;;10.00;99.90;;;;;;4956550;28;21004;-71
2021/12/24 07:45:30;;;;;;;4.37;4.03;;;10.00;99.90;;;;;;4956734;28;20467;-72
2021/12/24 07:48:09;;;;;;;4.90;4.40;;;10.00;99.90;;;;;;4955946;28;20448;-72
2021/12/24 07:53:22;;;;;;;4.87;4.30;;;10.10;99.90;;;;;;4956492;29;21000;-71
2021/12/24 07:55:49;;;;;;;5.17;4.77;;;10.10;99.90;;;;;;4956290;28;21013;-71
2021/12/24 07:58:17;;;;;;;5.20;4.80;;;10.10;99.90;;;;;;4956442;28;20446;-72
2021/12/24 08:00:45;;;;;;;5.13;4.60;;;10.10;99.90;;;;;;4956292;28;20544;-72
2021/12/24 08:03:11;;;;;;;4.97;4.50;;;10.10;99.90;;;;;;4956490;28;20454;-73
2021/12/24 08:05:42;;;;;;;4.77;4.33;;;10.10;99.90;;;;;;4956508;28;20460;-72
2021/12/24 08:08:09;;;;;;;4.93;4.43;;;10.10;99.90;;;;;;4956558;28;20811;-72
2021/12/24 08:10:37;;;;;;;6.93;4.77;;;10.10;99.90;;;;;;4956139;28;20531;-74
2021/12/24 08:13:05;;;;;;;5.37;4.93;;;10.10;99.90;;;;;;4955916;28;20991;-72
2021/12/24 08:15:32;;;;;;;5.37;4.93;;;10.10;99.90;;;;;;4956451;28;20460;-71
2021/12/24 08:17:59;;;;;;;7.93;4.60;;;10.10;99.90;;;;;;4955994;28;20868;-72
2021/12/24 08:20:27;;;;;;;5.17;4.67;;;10.10;99.90;;;;;;4956114;28;20589;-72
2021/12/24 08:22:56;;;;;;;5.70;5.30;;;10.10;99.90;;;;;;4956024;28;20457;-70
2021/12/24 08:25:24;;;;;;;5.80;5.17;;;10.10;99.90;;;;;;4956238;28;20442;-69
2021/12/24 08:27:51;;;;;;;6.17;4.80;;;10.10;99.90;;;;;;4956594;28;20452;-69
2021/12/24 08:30:19;;;;;;;5.27;4.87;;;10.10;99.90;;;;;;4956240;28;20468;-69
2021/12/24 08:32:45;;;;;;;6.87;4.10;;;10.00;99.90;;;;;;4956126;28;20477;-70
2021/12/24 08:35:15;;;;;;;5.20;4.70;;;10.00;99.90;;;;;;4956160;28;20457;-69
2021/12/24 08:37:42;;;;;;;6.20;5.60;;;10.00;99.90;;;;;;4955955;28;20457;-70
2021/12/24 08:40:12;;;;;;;7.90;4.80;;;10.00;99.90;;;;;;4957140;28;20466;-69
2021/12/24 08:42:38;;;;;;;5.70;5.13;;;10.10;99.90;;;;;;4956267;28;20456;-69
2021/12/24 08:45:06;;;;;;;5.37;4.83;;;10.10;99.90;;;;;;4956338;28;20459;-69
2021/12/24 08:47:34;;;;;;;5.30;4.80;;;10.00;99.90;;;;;;4955967;28;20550;-71
2021/12/24 08:50:00;;;;;;;6.00;4.83;;;10.00;99.90;;;;;;4956385;28;20467;-71
2021/12/24 08:52:27;;;;;;;6.50;5.23;;;10.00;99.90;;;;;;4955800;28;20484;-70
2021/12/24 08:54:54;;;;;;;4.73;4.33;;;10.00;99.90;;;;;;4955690;28;20823;-70
2021/12/24 08:57:22;;;;;;;4.33;3.93;;;10.00;99.90;;;;;;4956044;28;20805;-69
2021/12/24 08:59:50;;;;;;;4.50;4.20;;;10.00;99.90;;;;;;4955583;28;20466;-68
2021/12/24 09:02:17;;;;;;;5.97;3.90;;;10.00;99.90;;;;;;4956019;28;20991;-70
2021/12/24 09:04:44;;;;;;;6.47;4.00;;;10.00;99.90;;;;;;4955665;28;20456;-70
2021/12/24 09:07:11;;;;;;;4.60;4.03;;;10.00;99.90;;;;;;4955916;28;20469;-70
2021/12/24 09:09:38;;;;;;;4.50;4.10;;;10.00;99.90;;;;;;4956030;28;20460;-71
2021/12/24 09:12:06;;;;;;;5.60;4.37;;;10.00;99.90;;;;;;4955711;28;20485;-71
2021/12/24 09:14:34;;;;;;;4.20;3.90;;;10.00;99.90;;;;;;4955394;28;20464;-71
2021/12/24 09:17:02;;;;;;;5.30;3.60;;;10.00;99.90;;;;;;4956077;28;20817;-69
2021/12/24 09:19:31;;;;;;;3.60;3.30;;;10.00;99.90;;;;;;4956228;28;20440;-74
2021/12/24 09:21:58;;;;;;;4.67;3.80;;;10.00;99.90;;;;;;4956172;28;20476;-73
2021/12/24 09:24:27;;;;;;;6.63;4.63;;;10.00;99.90;;;;;;4957519;28;20452;-71
2021/12/24 09:26:56;;;;;;;11.17;6.10;;;10.00;99.90;;;;;;4972461;28;20453;-72
2021/12/24 09:29:25;;;;;;;8.50;6.50;;;10.10;99.90;;;;;;4973516;28;20459;-72
2021/12/24 09:31:53;;;;;;;5.50;4.90;;;10.10;99.90;;;;;;4964183;28;20980;-73
2021/12/24 09:34:20;;;;;;;7.23;4.43;;;10.10;99.90;;;;;;4956966;28;20529;-71
2021/12/24 09:36:47;;;;;;;4.57;4.27;;;10.00;99.90;;;;;;4964383;28;20836;-72
2021/12/24 09:39:15;;;;;;;4.50;4.10;;;10.00;99.90;;;;;;4963714;28;20483;-73
2021/12/24 09:41:42;;;;;;;3.90;3.60;;;10.00;99.90;;;;;;4963135;28;20864;-74
2021/12/24 09:44:09;;;;;;;4.97;4.47;;;10.00;99.90;;;;;;4959227;28;20461;-69
2021/12/24 09:46:40;;;;;;;4.53;4.00;;;10.00;99.90;;;;;;4955843;28;20495;-74
2021/12/24 09:49:09;;;;;;;4.17;3.77;;;10.00;99.90;;;;;;4955574;28;20812;-73
2021/12/24 09:51:38;;;;;;;4.07;3.70;;;10.00;99.90;;;;;;4955284;28;20569;-74
2021/12/24 09:54:10;;;;;;;4.07;3.77;;;10.00;99.90;;;;;;4955809;28;20499;-74
2021/12/24 09:56:36;;;;;;;4.10;3.80;;;10.00;99.90;;;;;;4955917;28;20437;-74
2021/12/24 09:59:03;;;;;;;3.77;3.47;;;10.00;99.90;;;;;;4956127;28;20461;-75
2021/12/24 10:01:32;;;;;;;5.57;3.97;;;10.00;99.90;;;;;;4955559;28;20496;-74
2021/12/24 10:04:04;;;;;;;6.03;4.07;;;10.00;99.90;;;;;;4956116;28;20458;-73
2021/12/24 10:06:32;;;;;;;5.13;4.63;;;10.00;99.90;;;;;;4955951;28;20464;-74
2021/12/24 10:09:02;;;;;;;7.60;4.80;;;10.00;99.90;;;;;;4956570;28;20484;-74
2021/12/24 10:11:30;;;;;;;5.10;4.67;;;10.00;99.90;;;;;;4959282;28;20569;-74
2021/12/24 10:14:05;;;;;;;9.77;5.73;;;9.90;99.90;;;;;;4960435;28;20578;-72
2021/12/24 10:16:32;;;;;;;5.80;5.30;;;9.70;99.90;;;;;;4960024;28;20808;-75
2021/12/24 10:19:01;;;;;;;5.30;4.53;;;9.60;99.90;;;;;;4960057;28;20483;-74
2021/12/24 10:21:32;;;;;;;4.80;4.40;;;9.60;99.90;;;;;;4959416;28;20889;-74
2021/12/24 10:24:03;;;;;;;6.83;4.67;;;9.60;99.90;;;;;;4959567;28;20441;-75
2021/12/24 10:26:31;;;;;;;9.50;5.70;;;9.50;99.90;;;;;;4959341;28;20460;-75
2021/12/24 10:29:02;;;;;;;6.27;5.70;;;9.50;99.90;;;;;;4959518;28;20458;-76
2021/12/24 10:31:31;;;;;;;5.50;5.00;;;9.40;99.90;;;;;;4960237;28;20482;-75
2021/12/24 10:34:05;;;;;;;5.20;4.70;;;9.40;99.90;;;;;;4959847;28;20492;-74
2021/12/24 10:36:32;;;;;;;7.13;5.17;;;9.40;99.90;;;;;;4959548;28;20812;-73
2021/12/24 10:39:00;;;;;;;7.93;4.53;;;9.40;99.90;;;;;;4958787;28;20939;-74
2021/12/24 10:41:30;;;;;;;5.77;5.13;;;9.40;99.90;;;;;;4959230;28;20796;-74
2021/12/24 10:44:14;;;;;;;5.67;5.13;;;9.40;99.90;;;;;;4958671;28;20447;-73
2021/12/24 10:46:56;;;;;;;5.40;4.90;;;9.30;99.90;;;;;;4958728;28;21021;-73
2021/12/24 10:49:36;;;;;;;5.33;4.70;;;9.30;99.90;;;;;;4958412;28;20440;-73
2021/12/24 10:52:13;;;;;;;4.80;4.30;;;9.30;99.90;;;;;;4957949;28;20980;-72
2021/12/24 10:54:53;;;;;;;6.03;4.13;;;9.30;99.90;;;;;;4957977;28;20475;-74
2021/12/24 10:57:23;;;;;;;10.43;4.97;;;9.40;99.90;;;;;;4958271;28;20451;-73
2021/12/24 10:59:53;;;;;;;6.30;4.43;;;9.40;99.90;;;;;;4958086;28;20535;-72
2021/12/24 11:02:22;;;;;;;4.60;4.20;;;9.50;99.90;;;;;;4957465;28;20984;-73
2021/12/24 11:04:48;;;;;;;4.53;3.90;;;9.50;99.90;;;;;;4958059;28;20452;-73
2021/12/24 11:07:36;;;;;;;9.83;4.07;;;9.50;99.90;;;;;;4957736;28;20464;-73
2021/12/24 11:10:12;;;;;;;4.47;4.07;;;9.50;99.90;;;;;;4957415;28;20482;-71
2021/12/24 11:12:42;;;;;;;4.20;3.67;;;9.50;99.90;;;;;;4957735;28;20482;-71
2021/12/24 11:15:20;;;;;;;4.20;3.80;;;9.50;99.90;;;;;;4957506;28;20487;-72
2021/12/24 11:17:48;;;;;;;4.03;3.63;;;9.50;99.90;;;;;;4957694;28;20457;-71
2021/12/24 11:20:15;;;;;;;3.77;3.53;;;9.50;99.90;;;;;;4957417;28;20460;-72
2021/12/24 11:23:00;;;;;;;4.60;3.80;;;9.50;99.90;;;;;;4957740;28;20511;-70
2021/12/24 11:25:31;;;;;;;4.30;3.87;;;9.50;99.90;;;;;;4957560;28;20920;-71
2021/12/24 11:27:58;;;;;;;3.53;3.23;;;9.60;99.90;;;;;;4957135;28;20451;-73
2021/12/24 11:30:26;;;;;;;3.10;2.90;;;9.60;99.90;;;;;;4957029;28;20462;-69
2021/12/24 11:32:54;;;;;;;4.27;3.87;;;9.60;99.90;;;;;;4957336;28;20552;-69
2021/12/24 11:35:21;;;;;;;6.33;3.93;;;9.60;99.90;;;;;;4957333;28;20460;-70
2021/12/24 11:37:49;;;;;;;3.30;3.10;;;9.70;99.90;;;;;;4957011;28;20939;-69
2021/12/24 11:40:19;;;;;;;3.20;2.90;;;9.70;99.90;;;;;;4956984;28;20554;-69
2021/12/24 11:42:52;;;;;;;3.70;3.40;;;9.70;99.90;;;;;;4957199;28;20465;-71
2021/12/24 11:45:22;;;;;;;3.33;3.03;;;9.70;99.90;;;;;;4956940;28;20488;-70
2021/12/24 11:47:49;;;;;;;3.30;3.00;;;9.80;99.90;;;;;;4957015;28;20493;-70
2021/12/24 11:50:17;;;;;;;2.70;2.50;;;9.80;99.90;;;;;;4956895;28;20460;-73
2021/12/24 11:52:46;;;;;;;2.83;2.70;;;9.80;99.90;;;;;;4956606;28;20484;-72
2021/12/24 11:55:13;;;;;;;2.27;2.17;;;9.80;99.90;;;;;;4956635;28;20454;-72
2021/12/24 11:57:56;;;;;;;5.57;2.87;;;9.80;99.90;;;;;;4956534;28;20462;-70
2021/12/24 12:00:26;;;;;;;2.00;1.90;;;9.90;99.90;;;;;;4956285;28;20444;-69
2021/12/24 12:02:54;;;;;;;2.87;2.60;;;9.90;99.90;;;;;;4956765;28;20906;-70
2021/12/24 12:05:26;;;;;;;2.77;2.60;;;9.90;99.90;;;;;;4956889;28;20447;-71
2021/12/24 12:08:13;;;;;;;2.50;2.30;;;10.00;99.90;;;;;;4956571;28;20445;-67
2021/12/24 12:10:51;;;;;;;2.50;2.40;;;10.10;99.90;;;;;;4956208;28;20469;-70
2021/12/24 12:13:39;;;;;;;3.70;2.60;;;10.10;99.90;;;;;;4956547;28;20478;-70
2021/12/24 12:16:08;;;;;;;2.80;2.60;;;10.30;99.90;;;;;;4956544;28;20465;-71
2021/12/24 12:18:44;;;;;;;2.40;2.20;;;10.40;99.90;;;;;;4956728;28;20490;-71
2021/12/24 12:21:12;;;;;;;2.60;2.13;;;10.40;99.90;;;;;;4956368;28;20536;-71
2021/12/24 12:23:53;;;;;;;3.23;3.00;;;10.50;99.90;;;;;;4956493;28;20469;-74
2021/12/24 12:26:37;;;;;;;3.03;2.83;;;10.50;99.90;;;;;;4956438;28;20446;-72
2021/12/24 12:29:24;;;;;;;3.17;2.23;;;10.60;99.90;;;;;;4956672;28;20461;-71
2021/12/24 12:31:54;;;;;;;4.90;3.97;;;10.70;99.90;;;;;;4955957;28;20489;-71
2021/12/24 12:34:53;;;;;;;2.70;2.50;;;10.80;99.90;;;;;;4955263;28;20466;-72
2021/12/24 12:37:23;;;;;;;3.20;3.00;;;10.80;99.90;;;;;;4956034;29;20506;-71
2021/12/24 12:39:53;;;;;;;2.93;2.43;;;10.60;99.90;;;;;;4956174;28;20869;-71
2021/12/24 12:42:21;;;;;;;2.50;2.10;;;10.70;99.90;;;;;;4955846;28;20482;-71
2021/12/24 12:44:52;;;;;;;2.90;2.70;;;10.60;99.90;;;;;;4955722;28;20437;-71
2021/12/24 12:47:21;;;;;;;2.30;2.20;;;10.60;99.90;;;;;;4956125;28;20449;-70
2021/12/24 12:49:48;;;;;;;2.80;2.60;;;10.70;99.90;;;;;;4956121;28;20480;-71
2021/12/24 12:52:25;;;;;;;2.60;2.40;;;10.70;99.90;;;;;;4956167;28;20488;-70
2021/12/24 12:54:56;;;;;;;2.47;2.27;;;10.80;99.90;;;;;;4956869;28;20544;-70
2021/12/24 12:57:27;;;;;;;2.10;1.83;;;10.80;99.90;;;;;;4956270;28;20503;-71
2021/12/24 13:00:20;;;;;;;1.63;1.63;;;10.70;99.90;;;;;;4955858;28;20520;-71
2021/12/24 13:03:07;;;;;;;2.10;2.00;;;10.70;99.90;;;;;;4955886;28;20435;-71
2021/12/24 13:05:54;;;;;;;2.10;2.00;;;10.70;99.90;;;;;;4955717;28;20471;-72
2021/12/24 13:08:22;;;;;;;2.90;1.77;;;10.70;99.90;;;;;;4955819;28;20442;-70
2021/12/24 13:10:55;;;;;;;2.17;1.97;;;10.70;99.90;;;;;;4955717;28;20607;-69
2021/12/24 13:13:22;;;;;;;2.30;2.20;;;10.70;99.90;;;;;;4955691;28;20501;-69
2021/12/24 13:15:50;;;;;;;2.00;1.90;;;10.50;99.90;;;;;;4955784;28;20468;-70
2021/12/24 13:18:25;;;;;;;1.47;1.37;;;10.50;99.90;;;;;;4955523;28;20463;-70
2021/12/24 13:23:33;;;;;;;2.60;2.37;;;10.50;99.90;;;;;;4955112;29;20942;-70
2021/12/24 13:26:09;;;;;;;2.20;1.80;;;10.50;99.90;;;;;;4955798;28;20454;-70
2021/12/24 13:28:36;;;;;;;1.63;1.53;;;10.50;99.90;;;;;;4955856;28;20537;-70
2021/12/24 13:31:15;;;;;;;1.60;1.50;;;10.50;99.90;;;;;;4955490;28;20982;-70
2021/12/24 13:33:42;;;;;;;1.90;1.70;;;10.40;99.90;;;;;;4956060;28;20474;-70
2021/12/24 13:36:12;;;;;;;2.20;1.70;;;10.40;99.90;;;;;;4955796;28;20945;-70
2021/12/24 13:38:39;;;;;;;1.90;1.80;;;10.50;99.90;;;;;;4957301;28;20442;-70
2021/12/24 13:41:06;;;;;;;2.40;2.20;;;10.50;99.90;;;;;;4962763;28;20484;-70
2021/12/24 13:43:37;;;;;;;1.70;1.60;;;10.40;99.90;;;;;;4963706;28;20454;-70
2021/12/24 13:46:08;;;;;;;2.57;2.37;;;10.40;99.90;;;;;;4960289;28;20448;-70
2021/12/24 13:48:49;;;;;;;1.43;1.43;;;10.40;99.90;;;;;;4960717;28;20439;-69
2021/12/24 13:56:48;;;;;;;1.53;1.53;;;10.40;99.90;;;;;;4959340;29;20914;-70
2021/12/24 13:59:20;;;;;;;1.80;1.70;;;10.40;99.90;;;;;;4959363;28;20457;-70
2021/12/24 14:01:46;;;;;;;1.80;1.70;;;10.40;99.90;;;;;;4958818;28;20500;-71
2021/12/24 14:04:17;;;;;;;1.70;1.60;;;10.50;99.90;;;;;;4958955;28;20460;-70
2021/12/24 14:06:47;;;;;;;1.60;1.60;;;10.30;99.90;;;;;;4959451;28;20446;-71
2021/12/24 14:09:17;;;;;;;1.40;1.40;;;10.40;99.90;;;;;;4959027;28;20470;-70
2021/12/24 14:11:45;;;;;;;1.43;1.33;;;10.30;99.90;;;;;;4958689;28;20820;-70
2021/12/24 14:14:17;;;;;;;1.50;1.40;;;10.40;99.90;;;;;;4959116;28;20475;-70
2021/12/24 14:16:59;;;;;;;2.60;1.50;;;10.40;99.90;;;;;;4958817;28;20448;-70
2021/12/24 14:19:33;;;;;;;1.43;1.30;;;10.40;99.90;;;;;;4958962;28;20449;-72
2021/12/24 14:22:07;;;;;;;1.13;1.10;;;10.40;99.90;;;;;;4958986;28;20526;-68
2021/12/24 14:24:36;;;;;;;1.50;1.50;;;10.40;99.90;;;;;;4958939;28;20454;-70
2021/12/24 14:27:06;;;;;;;1.40;1.30;;;10.30;99.90;;;;;;4959014;28;20557;-69
2021/12/24 14:29:38;;;;;;;4.57;1.63;;;10.30;99.90;;;;;;4958371;28;20988;-70
2021/12/24 14:32:08;;;;;;;2.00;1.50;;;10.30;99.90;;;;;;4958487;28;20476;-69
2021/12/24 14:34:46;;;;;;;8.60;3.63;;;10.30;99.90;;;;;;4958497;28;20468;-69
2021/12/24 14:37:23;;;;;;;1.63;1.57;;;10.30;99.90;;;;;;4958622;28;20453;-71
2021/12/24 14:39:52;;;;;;;1.43;1.43;;;10.30;99.90;;;;;;4958442;28;20518;-71
2021/12/24 14:42:26;;;;;;;1.53;1.43;;;10.30;99.90;;;;;;4958395;28;20477;-71
2021/12/24 14:44:55;;;;;;;2.83;1.80;;;10.30;99.90;;;;;;4958487;28;20445;-71
2021/12/24 14:47:26;;;;;;;1.53;1.43;;;10.30;99.90;;;;;;4958428;28;20458;-72
2021/12/24 14:50:03;;;;;;;1.70;1.60;;;10.30;99.90;;;;;;4958762;28;20468;-70
2021/12/24 14:52:31;;;;;;;1.50;1.50;;;10.30;99.90;;;;;;4958454;28;20488;-71
2021/12/24 14:55:22;;;;;;;1.73;1.63;;;10.40;99.90;;;;;;4957859;28;20471;-70
2021/12/24 14:57:57;;;;;;;1.83;1.73;;;10.40;99.90;;;;;;4943615;28;20472;-72
2021/12/24 15:00:31;;;;;;;1.90;1.80;;;10.40;99.90;;;;;;4957879;28;20511;-69
2021/12/24 15:02:58;;;;;;;4.17;2.03;;;10.40;99.90;;;;;;4958112;28;20441;-70
2021/12/24 15:05:35;;;;;;;1.90;1.80;;;10.40;99.90;;;;;;4958918;28;20447;-72
2021/12/24 15:08:19;;;;;;;2.00;1.90;;;10.40;99.90;;;;;;4958355;28;20440;-71
2021/12/24 15:11:01;;;;;;;2.43;2.33;;;10.40;99.90;;;;;;4957637;28;20475;-69
2021/12/24 15:13:29;;;;;;;3.40;3.20;;;10.40;99.90;;;;;;4957779;28;20474;-67
2021/12/24 15:15:58;;;;;;;3.60;3.30;;;10.40;99.90;;;;;;4957149;28;20544;-67
2021/12/24 15:18:26;;;;;;;3.57;3.07;;;10.50;99.90;;;;;;4957675;28;20469;-69
2021/12/24 15:20:54;;;;;;;4.07;3.77;;;10.60;99.90;;;;;;4966031;28;20485;-69
2021/12/24 15:23:21;;;;;;;6.27;5.77;;;10.60;99.90;;;;;;4971685;28;20472;-66
2021/12/24 15:25:48;;;;;;;5.00;4.60;;;10.60;99.90;;;;;;4958498;28;20457;-65
2021/12/24 15:28:19;;;;;;;8.17;5.60;;;10.70;99.90;;;;;;4957510;28;20557;-67
2021/12/24 15:30:47;;;;;;;6.53;5.93;;;10.70;99.90;;;;;;4958344;28;20511;-70
2021/12/24 15:33:14;;;;;;;7.27;6.20;;;10.90;99.90;;;;;;4957169;28;20529;-74
2021/12/24 15:35:41;;;;;;;6.37;5.77;;;11.00;99.90;;;;;;4957055;28;20490;-67
2021/12/24 15:38:09;;;;;;;5.93;5.07;;;11.10;99.90;;;;;;4956914;28;20462;-68
2021/12/24 15:40:36;;;;;;;4.70;4.40;;;11.20;99.90;;;;;;4956717;28;20978;-68
2021/12/24 15:43:03;;;;;;;4.27;3.50;;;11.10;99.90;;;;;;4957109;28;20509;-68
2021/12/24 15:45:30;;;;;;;4.70;4.33;;;11.10;99.90;;;;;;4956962;28;20465;-68
2021/12/24 15:47:58;;;;;;;3.93;3.63;;;11.00;99.90;;;;;;4956763;28;20467;-68
2021/12/24 15:50:25;;;;;;;4.30;3.90;;;11.00;99.90;;;;;;4956791;28;20464;-68
2021/12/24 15:52:51;;;;;;;3.80;3.43;;;10.90;99.90;;;;;;4956686;28;20462;-69
2021/12/24 15:55:20;;;;;;;4.43;4.00;;;10.80;99.90;;;;;;4956719;28;20466;-70
2021/12/24 15:57:46;;;;;;;3.20;2.50;;;10.80;99.90;;;;;;4956544;28;20935;-70
2021/12/24 16:00:14;;;;;;;2.77;2.57;;;10.70;99.90;;;;;;4960068;28;20458;-69
2021/12/24 16:02:41;;;;;;;3.07;2.77;;;10.60;99.90;;;;;;4961287;28;20480;-69
2021/12/24 16:05:09;;;;;;;7.00;6.40;;;10.50;99.90;;;;;;4956643;28;20445;-70
2021/12/24 16:07:36;;;;;;;4.80;4.17;;;10.40;99.90;;;;;;4956134;28;20452;-71
2021/12/24 16:10:04;;;;;;;7.10;6.50;;;10.40;99.90;;;;;;4956473;28;20478;-70
2021/12/24 16:12:32;;;;;;;6.10;5.70;;;10.40;99.90;;;;;;4956849;28;20483;-69
2021/12/24 16:15:00;;;;;;;4.90;4.40;;;10.30;99.90;;;;;;4956713;28;20509;-69
2021/12/24 16:17:27;;;;;;;6.00;5.50;;;10.20;99.90;;;;;;4957193;28;20939;-68
2021/12/24 16:19:53;;;;;;;5.30;5.00;;;10.20;99.90;;;;;;4957206;28;20457;-68
2021/12/24 16:22:20;;;;;;;6.57;5.97;;;10.20;99.90;;;;;;4957250;28;20480;-67
2021/12/24 16:24:47;;;;;;;6.33;5.73;;;10.10;99.90;;;;;;4956988;28;20450;-68
2021/12/24 16:27:14;;;;;;;5.70;5.30;;;10.10;99.90;;;;;;4957314;28;20453;-68
2021/12/24 16:29:49;;;;;;;5.77;5.27;;;10.00;99.90;;;;;;4956769;28;20460;-69
2021/12/24 16:32:16;;;;;;;8.13;6.40;;;9.90;99.90;;;;;;4957703;28;20507;-69
2021/12/24 16:34:43;;;;;;;7.27;6.67;;;9.90;99.90;;;;;;4957593;28;20484;-69
2021/12/24 16:37:11;;;;;;;6.80;5.60;;;9.90;99.90;;;;;;4957418;28;20466;-69
2021/12/24 16:39:38;;;;;;;5.47;5.00;;;9.80;99.90;;;;;;4956803;29;20494;-70
2021/12/24 16:42:06;;;;;;;5.73;5.30;;;9.80;99.90;;;;;;4956144;28;20987;-71
2021/12/24 16:44:32;;;;;;;6.63;4.80;;;9.80;99.90;;;;;;4956421;28;20472;-70
2021/12/24 16:47:01;;;;;;;7.13;5.60;;;9.70;99.90;;;;;;4956753;28;20461;-70
2021/12/24 16:49:28;;;;;;;5.83;5.17;;;9.80;99.90;;;;;;4955758;28;20970;-71
2021/12/24 16:51:55;;;;;;;5.50;5.00;;;9.70;99.90;;;;;;4956154;28;20481;-71
2021/12/24 16:54:23;;;;;;;15.40;6.80;;;9.70;99.90;;;;;;4956069;28;20946;-71
2021/12/24 16:56:50;;;;;;;5.33;4.93;;;9.70;99.90;;;;;;4956160;28;20446;-72
2021/12/24 16:59:19;;;;;;;5.87;5.37;;;9.80;99.90;;;;;;4956349;28;20456;-71
2021/12/24 17:01:47;;;;;;;8.23;7.33;;;9.90;99.90;;;;;;4955582;28;20546;-68
2021/12/24 17:04:16;;;;;;;10.13;6.23;;;10.00;99.90;;;;;;4955731;28;20465;-68
2021/12/24 17:06:43;;;;;;;6.57;6.07;;;10.30;99.90;;;;;;4956129;28;20455;-71
2021/12/24 17:09:10;;;;;;;6.20;5.70;;;10.50;99.90;;;;;;4956058;28;20457;-70
2021/12/24 17:11:38;;;;;;;7.27;6.40;;;10.60;99.90;;;;;;4956706;28;20485;-70
2021/12/24 17:14:05;;;;;;;7.77;7.17;;;10.60;99.90;;;;;;4962021;28;20466;-72
2021/12/24 17:16:32;;;;;;;10.07;5.87;;;10.50;99.90;;;;;;4963615;28;20481;-69
2021/12/24 17:18:58;;;;;;;6.37;5.90;;;10.40;99.90;;;;;;4962669;28;20463;-71
2021/12/24 17:21:27;;;;;;;7.40;6.53;;;10.40;99.90;;;;;;4967134;28;20481;-72
2021/12/24 17:23:53;;;;;;;5.87;5.37;;;10.40;99.90;;;;;;4971304;28;20457;-74
2021/12/24 17:26:20;;;;;;;7.07;6.57;;;10.30;99.90;;;;;;4972503;28;20467;-72
2021/12/24 17:28:48;;;;;;;7.53;5.90;;;10.30;99.90;;;;;;4970107;28;20457;-72
2021/12/24 17:31:15;;;;;;;7.03;6.47;;;10.20;99.90;;;;;;4972073;28;20481;-72
2021/12/24 17:33:42;;;;;;;9.50;7.13;;;10.20;99.90;;;;;;4969216;28;20460;-72
2021/12/24 17:36:10;;;;;;;8.43;6.43;;;10.10;99.90;;;;;;4962135;28;20518;-74
2021/12/24 17:38:38;;;;;;;7.23;6.63;;;10.10;99.90;;;;;;4961768;28;20458;-74
2021/12/24 17:41:05;;;;;;;7.53;6.60;;;10.00;99.90;;;;;;4966006;28;20988;-74
2021/12/24 17:43:32;;;;;;;7.67;6.90;;;10.00;99.90;;;;;;4963589;28;20977;-70
2021/12/24 17:45:59;;;;;;;6.63;5.90;;;10.00;99.90;;;;;;4961920;28;20463;-71
2021/12/24 17:48:26;;;;;;;7.57;6.87;;;9.90;99.90;;;;;;4961590;28;20463;-71
2021/12/24 17:50:53;;;;;;;8.00;7.30;;;9.90;99.90;;;;;;4966329;28;20485;-72
2021/12/24 17:53:19;;;;;;;9.67;8.80;;;9.90;99.90;;;;;;4967495;28;20460;-71
2021/12/24 17:55:47;;;;;;;11.17;9.57;;;9.80;99.90;;;;;;4961139;28;21054;-71
2021/12/24 17:58:14;;;;;;;11.83;10.73;;;9.80;99.90;;;;;;4959359;28;20461;-71
2021/12/24 18:00:41;;;;;;;11.33;10.13;;;9.80;99.90;;;;;;4958825;28;20493;-71
2021/12/24 18:03:08;;;;;;;10.13;9.20;;;9.80;99.90;;;;;;4960750;28;20846;-71
2021/12/24 18:05:36;;;;;;;11.30;10.23;;;9.80;99.90;;;;;;4960928;28;20957;-70
2021/12/24 18:08:03;;;;;;;9.80;9.00;;;9.80;99.90;;;;;;4959503;28;20464;-70
2021/12/24 18:10:30;;;;;;;9.43;8.63;;;9.80;99.90;;;;;;4961483;28;20470;-70
2021/12/24 18:12:58;;;;;;;9.13;8.23;;;9.70;99.90;;;;;;4964733;28;20465;-72
2021/12/24 18:15:29;;;;;;;9.20;8.40;;;9.70;99.90;;;;;;4963190;28;20471;-70
2021/12/24 18:17:56;;;;;;;7.40;6.70;;;9.70;99.90;;;;;;4963504;28;20809;-72